Time;durP1;ratioP1;P1;durP2;ratioP2;P2;SDS_P1;SDS_P2;PMS_P1;PMS_P2;Temp;Humidity;BMP_temperature;BMP_pressure;BME280_temperature;BME280_humidity;BME280_pressure;Samples;Min_cycle;Max_cycle;Signal;HPM_P1;HPM_P2
2021/09/26 00:00:23;;;;;;;7.93;7.33;;;;;;;20.59;81.71;96409.47;4974275;28;20175;-52
2021/09/26 00:02:48;;;;;;;8.83;7.37;;;;;;;20.80;81.58;96394.75;4973605;28;20589;-53
2021/09/26 00:05:14;;;;;;;8.83;8.00;;;;;;;20.56;82.38;96393.22;4973932;28;20463;-56
2021/09/26 00:07:40;;;;;;;7.37;6.83;;;;;;;20.67;82.11;96392.81;4974211;28;20269;-57
2021/09/26 00:10:08;;;;;;;10.60;7.20;;;;;;;20.72;82.25;96389.28;4974200;28;20177;-52
2021/09/26 00:12:34;;;;;;;9.17;7.03;;;;;;;20.48;83.47;96386.66;4972614;28;20504;-56
2021/09/26 00:15:00;;;;;;;7.33;6.63;;;;;;;20.71;82.61;96385.78;4973718;28;20425;-52
2021/09/26 00:17:25;;;;;;;9.03;7.50;;;;;;;20.68;83.08;96380.25;4974209;28;20974;-52
2021/09/26 00:19:51;;;;;;;7.67;6.87;;;;;;;20.76;82.65;96384.94;4976815;28;20681;-52
2021/09/26 00:22:16;;;;;;;7.90;7.20;;;;;;;20.74;82.75;96382.56;4977759;28;20174;-52
2021/09/26 00:24:42;;;;;;;8.40;7.07;;;;;;;20.68;83.01;96373.03;4977287;28;20202;-52
2021/09/26 00:27:10;;;;;;;7.80;7.00;;;;;;;20.55;83.53;96375.59;4977614;28;20185;-53
2021/09/26 00:29:36;;;;;;;7.57;6.97;;;;;;;20.64;83.19;96377.34;4977637;28;20189;-56
2021/09/26 00:32:03;;;;;;;8.33;7.63;;;;;;;20.49;83.94;96367.66;4977376;28;20900;-52
2021/09/26 00:34:29;;;;;;;9.43;7.30;;;;;;;20.59;83.53;96371.28;4977184;28;20488;-52
2021/09/26 00:36:54;;;;;;;7.60;6.90;;;;;;;20.72;83.10;96373.25;4977275;28;20989;-53
2021/09/26 00:39:20;;;;;;;8.30;7.60;;;;;;;20.46;84.07;96370.94;4977525;28;20178;-52
2021/09/26 00:41:45;;;;;;;8.33;7.27;;;;;;;20.34;84.78;96365.22;4977456;28;20174;-56
2021/09/26 00:44:10;;;;;;;7.40;6.80;;;;;;;20.42;84.56;96363.75;4976955;28;20231;-53
2021/09/26 00:46:36;;;;;;;7.20;6.53;;;;;;;20.34;84.90;96364.41;4977289;28;20204;-52
2021/09/26 00:49:01;;;;;;;10.60;7.63;;;;;;;20.38;84.74;96366.22;4977200;28;20204;-57
2021/09/26 00:51:27;;;;;;;8.17;7.43;;;;;;;20.40;84.53;96373.94;4977089;28;20205;-52
2021/09/26 00:53:52;;;;;;;7.87;6.90;;;;;;;20.53;84.36;96370.56;4976781;28;20652;-56
2021/09/26 00:56:18;;;;;;;9.97;6.83;;;;;;;20.46;84.42;96372.78;4977062;28;20209;-56
2021/09/26 00:58:43;;;;;;;8.30;7.53;;;;;;;20.46;84.38;96365.59;4977383;28;20488;-56
2021/09/26 01:01:09;;;;;;;7.30;6.57;;;;;;;20.40;84.86;96364.06;4976908;28;20605;-52
2021/09/26 01:03:34;;;;;;;9.13;7.33;;;;;;;20.41;84.33;96360.31;4976561;28;20277;-56
2021/09/26 01:06:37;;;;;;;7.87;7.07;;;;;;;20.41;84.58;96363.00;4976992;28;20232;-52
2021/09/26 01:09:20;;;;;;;10.10;6.53;;;;;;;20.47;84.14;96375.16;4976986;28;20209;-56
2021/09/26 01:11:51;;;;;;;7.10;6.40;;;;;;;20.32;84.86;96380.72;4976883;28;20436;-56
2021/09/26 01:14:34;;;;;;;7.53;6.93;;;;;;;20.30;84.85;96371.41;4976543;28;20402;-56
2021/09/26 01:17:05;;;;;;;6.90;6.20;;;;;;;20.46;84.40;96368.25;4975512;28;20417;-56
2021/09/26 01:20:03;;;;;;;7.07;5.80;;;;;;;20.52;84.30;96363.66;4976937;28;20409;-56
2021/09/26 01:22:51;;;;;;;8.67;6.63;;;;;;;20.43;84.87;96374.19;4976848;28;20421;-56
2021/09/26 01:25:37;;;;;;;6.90;6.20;;;;;;;20.54;84.80;96369.50;4976946;28;20434;-53
2021/09/26 01:28:11;;;;;;;7.30;6.40;;;;;;;20.58;84.86;96375.06;4977015;28;20766;-52
2021/09/26 01:31:00;;;;;;;7.10;6.37;;;;;;;20.52;84.97;96377.00;4976414;28;20409;-52
2021/09/26 01:33:33;;;;;;;7.43;6.77;;;;;;;20.48;85.13;96371.44;4976424;28;20406;-56
2021/09/26 01:36:11;;;;;;;8.87;6.43;;;;;;;20.60;85.20;96370.22;4976615;28;20433;-56
2021/09/26 01:38:45;;;;;;;11.50;7.90;;;;;;;20.77;84.34;96373.16;4976864;28;20512;-56
2021/09/26 01:41:39;;;;;;;7.27;6.50;;;;;;;20.70;84.55;96383.41;4976763;28;20437;-52
2021/09/26 01:44:13;;;;;;;8.30;6.73;;;;;;;20.60;85.04;96384.34;4975744;28;20461;-56
2021/09/26 01:46:43;;;;;;;6.87;6.17;;;;;;;20.58;85.45;96381.19;4976377;28;20504;-52
2021/09/26 01:49:31;;;;;;;6.90;6.40;;;;;;;20.51;85.75;96377.28;4976749;28;20433;-56
2021/09/26 01:52:00;;;;;;;7.60;6.83;;;;;;;20.34;86.74;96385.78;4976535;28;20404;-52
2021/09/26 01:54:26;;;;;;;7.00;6.30;;;;;;;20.19;87.31;96385.94;4975809;28;20421;-53
2021/09/26 01:56:52;;;;;;;8.87;6.77;;;;;;;20.27;87.07;96380.78;4976417;28;20979;-56
2021/09/26 01:59:22;;;;;;;11.07;6.87;;;;;;;20.20;87.31;96380.31;4976403;28;20414;-56
2021/09/26 02:01:48;;;;;;;8.43;6.50;;;;;;;20.13;88.05;96389.72;4976200;28;20409;-52
2021/09/26 02:04:17;;;;;;;8.07;7.27;;;;;;;20.18;87.69;96398.50;4975907;28;20496;-52
2021/09/26 02:06:44;;;;;;;7.30;6.60;;;;;;;20.18;87.81;96389.72;4976243;28;20190;-52
2021/09/26 02:09:11;;;;;;;7.23;6.40;;;;;;;20.11;88.72;96391.91;4976121;28;20406;-53
2021/09/26 02:11:39;;;;;;;8.33;7.30;;;;;;;20.17;88.63;96382.78;4975963;28;20413;-52
2021/09/26 02:14:06;;;;;;;7.67;6.50;;;;;;;20.24;88.30;96380.53;4975814;28;20397;-52
2021/09/26 02:16:33;;;;;;;11.40;6.80;;;;;;;20.24;88.40;96380.53;4976139;28;20421;-56
2021/09/26 02:19:00;;;;;;;10.07;7.43;;;;;;;20.15;88.96;96374.22;4976006;28;20413;-52
2021/09/26 02:21:26;;;;;;;9.60;7.57;;;;;;;20.26;88.41;96365.84;4975974;28;20414;-52
2021/09/26 02:23:53;;;;;;;7.77;7.07;;;;;;;20.08;89.45;96363.91;4975375;28;20457;-53
2021/09/26 02:26:19;;;;;;;7.77;7.10;;;;;;;20.26;88.87;96363.19;4975671;28;20464;-53
2021/09/26 02:28:44;;;;;;;8.80;7.47;;;;;;;20.15;89.08;96363.56;4976027;28;20430;-52
2021/09/26 02:31:10;;;;;;;7.43;6.73;;;;;;;20.11;89.55;96366.00;4975674;28;20915;-52
2021/09/26 02:33:36;;;;;;;10.23;7.20;;;;;;;20.14;89.84;96365.44;4975355;28;20176;-56
2021/09/26 02:36:06;;;;;;;7.80;7.00;;;;;;;20.20;89.44;96369.66;4975482;28;20194;-52
2021/09/26 02:38:32;;;;;;;7.40;6.47;;;;;;;20.06;90.67;96378.59;4975285;28;20453;-56
2021/09/26 02:41:22;;;;;;;7.73;6.90;;;;;;;20.08;90.49;96379.91;4975642;28;20412;-56
2021/09/26 02:43:55;;;;;;;9.00;6.90;;;;;;;20.08;90.30;96377.25;4974661;28;20808;-56
2021/09/26 02:46:29;;;;;;;7.67;6.97;;;;;;;20.14;90.22;96380.66;4975533;28;20461;-56
2021/09/26 02:48:56;;;;;;;8.53;6.47;;;;;;;20.28;89.69;96378.91;4975278;28;20892;-56
2021/09/26 02:51:22;;;;;;;7.07;6.43;;;;;;;20.20;89.73;96380.31;4975309;28;20870;-56
2021/09/26 02:53:49;;;;;;;9.33;7.23;;;;;;;20.23;89.80;96371.78;4974945;28;20488;-52
2021/09/26 02:56:15;;;;;;;9.70;7.80;;;;;;;20.45;88.51;96371.22;4975340;28;20913;-56
2021/09/26 02:58:40;;;;;;;7.40;6.80;;;;;;;20.40;88.74;96372.06;4975356;28;20412;-52
2021/09/26 03:01:06;;;;;;;8.17;7.37;;;;;;;20.66;87.61;96369.03;4975271;28;20177;-55
2021/09/26 03:03:32;;;;;;;8.27;7.00;;;;;;;20.81;86.86;96364.28;4974505;28;20200;-53
2021/09/26 03:05:57;;;;;;;9.53;6.70;;;;;;;20.72;87.11;96365.22;4975197;28;20646;-56
2021/09/26 03:08:24;;;;;;;7.53;6.73;;;;;;;20.65;87.18;96357.59;4975177;28;20253;-56
2021/09/26 03:10:53;;;;;;;8.60;7.20;;;;;;;20.75;86.86;96346.75;4975045;28;20273;-52
2021/09/26 03:13:19;;;;;;;7.80;7.10;;;;;;;20.86;86.67;96345.50;4974643;28;20398;-56
2021/09/26 03:15:44;;;;;;;8.90;6.97;;;;;;;20.93;85.98;96350.47;4974817;28;20775;-53
2021/09/26 03:18:10;;;;;;;8.77;7.90;;;;;;;20.81;86.60;96340.25;4974824;28;20174;-52
2021/09/26 03:20:35;;;;;;;7.73;6.90;;;;;;;20.89;86.35;96341.47;4975045;28;20166;-52
2021/09/26 03:23:01;;;;;;;10.17;8.30;;;;;;;20.91;86.04;96341.94;4974421;28;20248;-56
2021/09/26 03:25:26;;;;;;;8.20;7.50;;;;;;;21.01;85.69;96341.84;4974709;28;20186;-52
2021/09/26 03:27:52;;;;;;;7.87;7.07;;;;;;;21.12;84.81;96340.59;4974894;28;20170;-52
2021/09/26 03:30:18;;;;;;;8.17;7.10;;;;;;;21.21;84.30;96338.84;4974653;28;20176;-53
2021/09/26 03:32:44;;;;;;;7.73;7.10;;;;;;;21.31;83.77;96341.31;4974501;28;20885;-56
2021/09/26 03:35:11;;;;;;;7.57;6.87;;;;;;;21.27;83.77;96340.34;4974771;28;20261;-56
2021/09/26 03:37:36;;;;;;;10.37;7.00;;;;;;;21.33;83.71;96347.19;4974461;28;20609;-56
2021/09/26 03:40:04;;;;;;;7.30;6.60;;;;;;;21.32;83.51;96341.03;4974663;28;20496;-57
2021/09/26 03:42:29;;;;;;;9.93;7.47;;;;;;;21.37;83.32;96342.84;4974977;28;20252;-57
2021/09/26 03:44:55;;;;;;;8.83;7.20;;;;;;;21.36;83.11;96338.59;4974208;28;20963;-53
2021/09/26 03:47:20;;;;;;;10.40;7.27;;;;;;;21.39;83.04;96336.13;4974526;28;20177;-56
2021/09/26 03:49:46;;;;;;;8.27;7.57;;;;;;;21.28;83.79;96336.56;4974721;28;20174;-56
2021/09/26 03:52:13;;;;;;;8.90;7.50;;;;;;;21.28;83.69;96334.69;4974609;28;20175;-53
2021/09/26 03:54:38;;;;;;;8.27;7.57;;;;;;;21.22;84.40;96343.09;4976849;28;20166;-56
2021/09/26 03:57:04;;;;;;;8.17;7.20;;;;;;;21.13;84.68;96339.50;4978747;28;20456;-56
2021/09/26 03:59:29;;;;;;;7.30;6.63;;;;;;;21.13;84.80;96336.81;4978552;28;20175;-53
2021/09/26 04:01:55;;;;;;;10.80;7.40;;;;;;;21.22;84.21;96345.75;4978526;28;20412;-52
2021/09/26 04:04:21;;;;;;;9.03;7.70;;;;;;;21.29;83.74;96348.84;4977955;28;20706;-52
2021/09/26 04:06:46;;;;;;;9.30;7.53;;;;;;;21.32;83.21;96346.38;4978305;28;20253;-52
2021/09/26 04:09:12;;;;;;;7.67;7.07;;;;;;;21.23;83.43;96356.16;4978435;28;20492;-56
2021/09/26 04:11:38;;;;;;;7.37;6.77;;;;;;;21.17;83.51;96341.31;4978243;28;20220;-52
2021/09/26 04:14:04;;;;;;;7.80;7.10;;;;;;;21.19;83.35;96341.00;4977787;28;20170;-53
2021/09/26 04:16:31;;;;;;;13.33;7.60;;;;;;;21.00;83.66;96340.22;4978061;28;20444;-53
2021/09/26 04:18:56;;;;;;;7.10;6.40;;;;;;;21.00;83.95;96342.91;4978101;28;20189;-53
2021/09/26 04:21:22;;;;;;;8.37;7.57;;;;;;;20.85;85.04;96340.47;4978037;28;20896;-52
2021/09/26 04:23:48;;;;;;;8.93;7.73;;;;;;;20.97;84.37;96344.28;4977678;28;20225;-56
2021/09/26 04:26:15;;;;;;;8.37;7.57;;;;;;;21.02;83.87;96348.75;4977836;28;20197;-56
2021/09/26 04:28:40;;;;;;;12.73;7.40;;;;;;;21.04;83.90;96341.25;4978023;28;20176;-56
2021/09/26 04:31:06;;;;;;;7.23;6.43;;;;;;;21.01;83.79;96344.50;4977921;28;20409;-56
2021/09/26 04:33:32;;;;;;;15.53;8.10;;;;;;;20.98;83.70;96345.06;4977656;28;20174;-52
2021/09/26 04:35:57;;;;;;;13.60;7.83;;;;;;;20.95;83.54;96342.97;4977719;28;20669;-56
2021/09/26 04:38:23;;;;;;;8.20;7.23;;;;;;;20.92;83.28;96344.34;4977653;28;20421;-53
2021/09/26 04:40:48;;;;;;;7.40;6.73;;;;;;;20.88;83.31;96332.66;4977920;28;20246;-52
2021/09/26 04:43:14;;;;;;;7.17;6.57;;;;;;;20.87;83.16;96339.06;4977159;28;20209;-56
2021/09/26 04:45:39;;;;;;;7.90;7.20;;;;;;;20.80;82.96;96335.97;4977347;28;20665;-58
2021/09/26 04:48:05;;;;;;;7.97;7.17;;;;;;;20.75;82.93;96346.75;4977726;28;20213;-53
2021/09/26 04:50:31;;;;;;;10.67;7.70;;;;;;;20.74;82.80;96341.69;4977697;28;20189;-52
2021/09/26 04:52:57;;;;;;;9.17;7.47;;;;;;;20.72;82.96;96336.66;4977278;28;20178;-53
2021/09/26 04:55:26;;;;;;;10.13;7.87;;;;;;;20.67;82.69;96346.63;4977453;28;20433;-53
2021/09/26 04:57:53;;;;;;;8.27;7.13;;;;;;;20.61;82.87;96348.56;4977299;28;20178;-52
2021/09/26 05:00:19;;;;;;;7.87;7.23;;;;;;;20.57;82.89;96350.22;4977200;28;20422;-52
2021/09/26 05:02:44;;;;;;;8.83;8.03;;;;;;;20.56;82.82;96356.66;4977566;28;20905;-53
2021/09/26 05:05:10;;;;;;;8.47;7.47;;;;;;;20.52;83.23;96354.84;4976245;28;20202;-52
2021/09/26 05:07:35;;;;;;;8.63;7.73;;;;;;;20.46;83.49;96348.75;4977132;28;20499;-52
2021/09/26 05:10:01;;;;;;;8.27;7.57;;;;;;;20.42;84.16;96351.22;4977323;28;20171;-56
2021/09/26 05:12:26;;;;;;;8.50;7.83;;;;;;;20.40;84.24;96348.03;4977224;28;20235;-53
2021/09/26 05:14:55;;;;;;;9.77;8.87;;;;;;;20.41;84.26;96349.66;4976868;28;20193;-56
2021/09/26 05:17:20;;;;;;;8.23;7.53;;;;;;;20.43;84.45;96352.03;4977377;28;20170;-52
2021/09/26 05:19:47;;;;;;;8.30;7.50;;;;;;;20.37;84.42;96353.97;4975797;28;20504;-56
2021/09/26 05:22:13;;;;;;;9.60;8.80;;;;;;;20.38;84.52;96350.19;4977031;28;20181;-56
2021/09/26 05:24:38;;;;;;;13.23;8.43;;;;;;;20.25;85.33;96345.59;4976353;28;20461;-56
2021/09/26 05:27:04;;;;;;;8.60;7.80;;;;;;;20.30;85.20;96339.38;4976979;28;20177;-56
2021/09/26 05:29:30;;;;;;;9.20;8.30;;;;;;;20.25;85.25;96342.94;4976744;28;20641;-56
2021/09/26 05:31:55;;;;;;;9.30;8.43;;;;;;;20.25;85.44;96344.78;4976759;28;20174;-56
2021/09/26 05:34:21;;;;;;;8.77;7.97;;;;;;;20.24;85.81;96345.84;4976219;28;20217;-52
2021/09/26 05:36:46;;;;;;;8.60;7.87;;;;;;;20.28;85.77;96346.88;4976664;28;20194;-57
2021/09/26 05:39:11;;;;;;;10.73;8.97;;;;;;;20.29;86.00;96341.25;4976829;28;20166;-56
2021/09/26 05:41:37;;;;;;;10.93;7.40;;;;;;;20.31;85.84;96344.44;4976487;28;20511;-53
2021/09/26 05:44:02;;;;;;;9.27;7.20;;;;;;;20.29;85.59;96343.91;4976240;28;20214;-56
2021/09/26 05:46:28;;;;;;;8.30;7.50;;;;;;;20.28;85.65;96353.00;4976476;28;20260;-56
2021/09/26 05:48:54;;;;;;;8.77;7.87;;;;;;;20.27;85.60;96347.97;4976529;28;20174;-52
2021/09/26 05:51:19;;;;;;;9.80;8.83;;;;;;;20.23;85.14;96357.63;4976626;28;20769;-52
2021/09/26 05:53:45;;;;;;;8.77;7.90;;;;;;;20.22;85.18;96346.16;4976051;28;20170;-52
2021/09/26 05:56:10;;;;;;;9.57;8.30;;;;;;;20.24;84.91;96348.53;4976154;28;20186;-53
2021/09/26 05:58:35;;;;;;;9.70;8.80;;;;;;;20.21;85.24;96351.78;4976198;28;20174;-53
2021/09/26 06:01:01;;;;;;;11.33;8.27;;;;;;;20.16;85.63;96344.59;4976455;28;20197;-52
2021/09/26 06:03:26;;;;;;;16.63;8.63;;;;;;;20.15;85.71;96343.00;4975707;28;20657;-52
2021/09/26 06:05:51;;;;;;;8.47;7.73;;;;;;;20.10;85.70;96345.75;4976097;28;20217;-52
2021/09/26 06:08:17;;;;;;;12.33;8.70;;;;;;;20.11;86.11;96351.88;4976411;28;20257;-56
2021/09/26 06:10:42;;;;;;;12.30;9.23;;;;;;;20.19;87.63;96372.63;4976305;28;20312;-52
2021/09/26 06:13:08;;;;;;;9.37;8.47;;;;;;;20.19;88.09;96361.94;4975458;28;20304;-56
2021/09/26 06:15:34;;;;;;;12.33;8.50;;;;;;;20.14;88.64;96361.97;4975908;28;20229;-52
2021/09/26 06:18:00;;;;;;;9.47;7.83;;;;;;;20.17;88.50;96359.56;4975695;28;20174;-56
2021/09/26 06:20:26;;;;;;;9.53;8.30;;;;;;;20.15;89.95;96360.88;4975912;28;20421;-56
2021/09/26 06:22:52;;;;;;;10.87;9.10;;;;;;;20.13;90.13;96363.84;4975240;28;20166;-53
2021/09/26 06:25:17;;;;;;;9.33;8.40;;;;;;;20.14;90.68;96362.78;4975679;28;20224;-56
2021/09/26 06:27:43;;;;;;;12.97;8.43;;;;;;;20.14;91.07;96353.97;4975657;28;20892;-52
2021/09/26 06:30:09;;;;;;;9.03;8.23;;;;;;;20.21;90.71;96360.59;4975549;28;20638;-56
2021/09/26 06:32:35;;;;;;;10.83;7.50;;;;;;;20.33;90.51;96365.47;4975505;28;20174;-55
2021/09/26 06:35:02;;;;;;;9.10;8.03;;;;;;;20.43;89.94;96357.38;4975412;28;20436;-56
2021/09/26 06:37:28;;;;;;;8.13;7.43;;;;;;;20.49;89.70;96362.34;4975662;28;20240;-56
2021/09/26 06:39:55;;;;;;;8.40;7.60;;;;;;;20.61;89.48;96363.78;4975479;28;20437;-56
2021/09/26 06:42:20;;;;;;;10.37;8.03;;;;;;;20.65;89.57;96367.47;4975642;28;20444;-56
2021/09/26 06:44:46;;;;;;;9.00;8.00;;;;;;;20.70;89.11;96368.19;4974825;28;20886;-56
2021/09/26 06:47:11;;;;;;;8.27;7.40;;;;;;;20.77;88.92;96375.84;4975343;28;20234;-52
2021/09/26 06:49:37;;;;;;;12.17;9.60;;;;;;;20.81;88.81;96385.66;4975555;28;20249;-56
2021/09/26 06:52:02;;;;;;;9.93;9.03;;;;;;;20.85;88.60;96400.03;4975263;28;20247;-52
2021/09/26 06:54:28;;;;;;;11.13;7.73;;;;;;;20.85;88.51;96407.25;4974674;28;20216;-53
2021/09/26 06:56:53;;;;;;;10.00;7.97;;;;;;;20.81;88.37;96407.03;4975098;28;20175;-53
2021/09/26 06:59:18;;;;;;;9.53;8.07;;;;;;;20.83;88.84;96406.75;4975589;28;20503;-52
2021/09/26 07:01:44;;;;;;;10.03;9.03;;;;;;;20.87;88.95;96407.75;4975081;28;20178;-56
2021/09/26 07:04:09;;;;;;;10.13;9.17;;;;;;;20.96;88.71;96419.38;4974557;28;20206;-56
2021/09/26 07:06:35;;;;;;;11.83;9.80;;;;;;;20.96;88.91;96406.03;4975088;28;20202;-52
2021/09/26 07:09:00;;;;;;;10.00;8.50;;;;;;;21.03;88.48;96409.97;4975112;28;20178;-56
2021/09/26 07:11:26;;;;;;;10.17;8.57;;;;;;;20.97;88.50;96410.28;4973782;28;20182;-56
2021/09/26 07:13:51;;;;;;;9.53;7.70;;;;;;;21.09;88.08;96410.66;4974522;28;20170;-56
2021/09/26 07:16:17;;;;;;;9.00;7.97;;;;;;;21.06;87.96;96409.38;4974980;28;20226;-56
2021/09/26 07:18:42;;;;;;;10.53;8.17;;;;;;;21.01;87.66;96409.44;4975215;28;20221;-52
2021/09/26 07:21:10;;;;;;;11.50;7.57;;;;;;;20.96;87.49;96412.13;4974806;28;20645;-52
2021/09/26 07:23:35;;;;;;;7.83;7.03;;;;;;;21.06;87.27;96411.22;4974371;28;20206;-52
2021/09/26 07:26:01;;;;;;;8.10;6.90;;;;;;;20.90;88.55;96425.88;4974507;28;20960;-56
2021/09/26 07:28:26;;;;;;;8.43;7.37;;;;;;;21.10;87.47;96430.97;4974595;28;20167;-56
2021/09/26 07:30:51;;;;;;;10.90;8.10;;;;;;;21.10;88.00;96428.28;4974704;28;20212;-52
2021/09/26 07:33:17;;;;;;;8.43;7.47;;;;;;;21.06;87.67;96433.41;4974325;28;20170;-53
2021/09/26 07:35:45;;;;;;;8.60;7.53;;;;;;;21.09;87.73;96440.03;4974777;28;20193;-56
2021/09/26 07:38:11;;;;;;;12.83;8.07;;;;;;;21.13;87.69;96430.38;4974295;28;20182;-56
2021/09/26 07:40:36;;;;;;;10.90;8.03;;;;;;;21.09;87.78;96437.38;4974416;28;20475;-57
2021/09/26 07:43:01;;;;;;;10.23;8.47;;;;;;;21.16;87.14;96441.28;4974002;28;20504;-53
2021/09/26 07:45:27;;;;;;;9.43;8.00;;;;;;;21.23;87.07;96439.03;4974583;28;20194;-53
2021/09/26 07:47:52;;;;;;;7.80;7.00;;;;;;;21.18;86.94;96444.44;4974702;28;20326;-56
2021/09/26 07:50:24;;;;;;;9.03;7.30;;;;;;;21.04;87.86;96448.16;4974569;28;20617;-56
2021/09/26 07:52:49;;;;;;;8.10;7.30;;;;;;;20.82;88.87;96453.22;4974211;28;20181;-56
2021/09/26 07:55:14;;;;;;;10.43;7.70;;;;;;;20.83;89.67;96469.00;4974496;28;20425;-52
2021/09/26 07:57:40;;;;;;;10.53;7.30;;;;;;;20.81;90.21;96475.69;4974631;28;20195;-53
2021/09/26 08:00:06;;;;;;;10.43;7.57;;;;;;;20.87;89.05;96479.91;4974682;28;20175;-52
2021/09/26 08:02:31;;;;;;;7.97;7.17;;;;;;;20.93;89.16;96476.84;4974443;28;20536;-53
2021/09/26 08:04:57;;;;;;;8.47;7.67;;;;;;;21.06;88.86;96478.03;4973908;28;20457;-52
2021/09/26 08:07:22;;;;;;;11.43;8.07;;;;;;;21.16;88.53;96481.38;4974404;28;20174;-56
2021/09/26 08:09:47;;;;;;;7.70;7.10;;;;;;;20.98;88.99;96498.16;4974159;28;20687;-52
2021/09/26 08:12:13;;;;;;;10.43;7.60;;;;;;;21.15;88.63;96503.03;4974473;28;20177;-56
2021/09/26 08:14:38;;;;;;;9.07;8.17;;;;;;;20.98;89.20;96508.84;4973923;28;20688;-56
2021/09/26 08:17:04;;;;;;;12.70;9.00;;;;;;;20.90;89.90;96508.69;4974295;28;20177;-57
2021/09/26 08:19:29;;;;;;;12.10;8.30;;;;;;;21.13;89.51;96507.88;4974423;28;20189;-52
2021/09/26 08:21:55;;;;;;;10.60;8.47;;;;;;;20.95;89.54;96516.66;4974121;28;20174;-53
2021/09/26 08:24:22;;;;;;;9.97;7.93;;;;;;;21.04;90.07;96512.28;4973672;28;20209;-52
2021/09/26 08:26:47;;;;;;;8.87;8.03;;;;;;;21.19;89.69;96510.22;4974104;28;20190;-56
2021/09/26 08:29:12;;;;;;;10.50;8.07;;;;;;;21.24;89.27;96515.47;4974135;28;20405;-57
2021/09/26 08:31:38;;;;;;;9.37;7.70;;;;;;;21.42;88.71;96514.69;4974175;28;20677;-52
2021/09/26 08:34:03;;;;;;;8.50;7.70;;;;;;;21.39;88.73;96517.94;4973662;28;20170;-52
2021/09/26 08:36:29;;;;;;;8.23;7.10;;;;;;;21.37;88.84;96519.31;4974179;28;20218;-56
2021/09/26 08:38:54;;;;;;;8.80;7.90;;;;;;;21.17;89.20;96520.41;4973844;28;20273;-52
2021/09/26 08:41:20;;;;;;;10.03;7.93;;;;;;;21.22;89.18;96511.50;4975887;28;20196;-56
2021/09/26 08:43:51;;;;;;;8.87;7.63;;;;;;;21.54;87.87;96508.09;4977172;28;20230;-56
2021/09/26 08:46:17;;;;;;;9.13;8.07;;;;;;;21.48;87.05;96518.88;4977656;28;20280;-56
2021/09/26 08:48:43;;;;;;;8.00;7.30;;;;;;;21.51;86.81;96517.47;4977578;28;20876;-52
2021/09/26 08:51:11;;;;;;;7.87;7.10;;;;;;;21.61;86.35;96525.38;4977497;28;20489;-56
2021/09/26 08:53:37;;;;;;;7.70;7.00;;;;;;;21.64;86.71;96538.16;4976906;28;20734;-56
2021/09/26 08:56:03;;;;;;;7.77;6.77;;;;;;;21.56;86.36;96532.69;4977218;28;20487;-53
2021/09/26 08:58:28;;;;;;;10.53;7.23;;;;;;;21.78;86.18;96527.50;4977399;28;20193;-52
2021/09/26 09:00:54;;;;;;;10.10;6.60;;;;;;;21.70;85.15;96539.69;4977195;28;20174;-52
2021/09/26 09:03:19;;;;;;;7.70;6.97;;;;;;;21.83;85.27;96536.25;4976827;28;20281;-56
2021/09/26 09:05:51;;;;;;;9.80;7.80;;;;;;;21.70;85.12;96534.31;4976969;28;20540;-53
2021/09/26 09:08:18;;;;;;;9.40;8.00;;;;;;;21.65;85.21;96528.25;4977223;28;20171;-53
2021/09/26 09:10:45;;;;;;;8.10;7.33;;;;;;;21.66;84.73;96524.47;4977250;28;20884;-56
2021/09/26 09:13:13;;;;;;;10.80;7.37;;;;;;;21.63;85.07;96525.88;4976823;28;20466;-56
2021/09/26 09:15:40;;;;;;;9.63;8.27;;;;;;;21.41;84.74;96536.38;4976962;28;20496;-52
2021/09/26 09:18:07;;;;;;;9.70;8.13;;;;;;;21.22;84.76;96533.69;4977083;28;20421;-52
2021/09/26 09:20:34;;;;;;;8.33;7.40;;;;;;;21.21;83.45;96537.44;4976916;28;20418;-56
2021/09/26 09:23:16;;;;;;;8.87;7.97;;;;;;;21.13;83.89;96532.75;4976496;28;20500;-52
2021/09/26 09:25:53;;;;;;;8.87;8.03;;;;;;;20.83;84.12;96534.97;4976904;28;20437;-56
2021/09/26 09:28:23;;;;;;;9.40;8.43;;;;;;;20.66;83.57;96535.44;4975550;28;20840;-56
2021/09/26 09:30:59;;;;;;;9.20;8.30;;;;;;;20.85;84.24;96532.81;4976754;28;20409;-53
2021/09/26 09:33:38;;;;;;;9.83;8.93;;;;;;;20.69;84.08;96544.78;4976642;28;20415;-52
2021/09/26 09:36:19;;;;;;;11.00;10.00;;;;;;;20.58;85.94;96543.28;4976776;28;20437;-53
2021/09/26 09:38:45;;;;;;;10.83;9.90;;;;;;;20.45;85.96;96537.53;4976564;28;20461;-53
2021/09/26 09:41:10;;;;;;;11.60;10.50;;;;;;;20.60;86.41;96543.81;4976598;28;20441;-56
2021/09/26 09:43:47;;;;;;;15.53;10.90;;;;;;;20.59;86.58;96535.00;4976075;28;21011;-56
2021/09/26 09:46:14;;;;;;;10.57;9.63;;;;;;;20.69;85.99;96540.19;4976507;28;20269;-56
2021/09/26 09:48:40;;;;;;;11.27;10.27;;;;;;;20.63;85.24;96535.22;4976465;28;20836;-57
2021/09/26 09:51:08;;;;;;;11.53;9.80;;;;;;;20.60;86.31;96535.78;4976011;28;20464;-53
2021/09/26 09:53:46;;;;;;;11.63;10.50;;;;;;;20.63;86.78;96536.00;4976013;28;20416;-52
2021/09/26 09:56:17;;;;;;;10.87;9.87;;;;;;;20.53;87.29;96535.34;4976413;28;20432;-56
2021/09/26 09:58:54;;;;;;;11.90;10.77;;;;;;;20.42;88.00;96532.75;4976390;28;20417;-57
2021/09/26 10:01:29;;;;;;;11.33;10.43;;;;;;;20.65;87.75;96530.38;4976389;28;20983;-52
2021/09/26 10:03:59;;;;;;;11.70;10.63;;;;;;;20.59;88.98;96526.16;4975791;28;20539;-52
2021/09/26 10:06:32;;;;;;;11.37;10.30;;;;;;;20.55;90.32;96527.81;4976002;28;20465;-56
2021/09/26 10:09:25;;;;;;;13.33;11.00;;;;;;;20.43;90.53;96530.91;4976338;28;20440;-52
2021/09/26 10:11:50;;;;;;;12.30;11.30;;;;;;;20.52;91.52;96521.19;4975178;28;20445;-56
2021/09/26 10:14:18;;;;;;;15.83;11.53;;;;;;;20.49;91.20;96517.19;4975683;28;20920;-56
2021/09/26 10:16:44;;;;;;;13.57;12.17;;;;;;;20.45;91.68;96521.50;4975892;28;20230;-52
2021/09/26 10:19:09;;;;;;;12.97;11.77;;;;;;;20.37;93.03;96513.34;4976122;28;20423;-52
2021/09/26 10:21:37;;;;;;;14.83;13.30;;;;;;;20.44;92.40;96506.56;4976054;28;20820;-58
2021/09/26 10:24:04;;;;;;;13.53;11.30;;;;;;;20.49;91.72;96505.72;4975613;28;20217;-52
2021/09/26 10:26:30;;;;;;;13.97;12.67;;;;;;;20.54;92.05;96510.22;4975820;28;20508;-52
2021/09/26 10:28:58;;;;;;;13.17;11.67;;;;;;;20.59;92.34;96516.28;4975934;28;20970;-58
2021/09/26 10:31:28;;;;;;;12.73;11.30;;;;;;;20.37;92.55;96522.16;4975788;28;20417;-53
2021/09/26 10:33:56;;;;;;;11.60;10.20;;;;;;;20.43;91.99;96528.22;4975635;28;20416;-56
2021/09/26 10:36:23;;;;;;;11.60;10.60;;;;;;;20.43;91.72;96521.03;4975668;28;20527;-56
2021/09/26 10:38:50;;;;;;;10.87;9.97;;;;;;;20.56;92.26;96522.22;4974285;28;20460;-57
2021/09/26 10:41:17;;;;;;;12.47;11.37;;;;;;;20.72;91.56;96534.31;4975617;28;20437;-52
2021/09/26 10:43:43;;;;;;;9.20;8.27;;;;;;;20.51;90.10;96519.56;4975067;28;20508;-56
2021/09/26 10:46:25;;;;;;;9.70;8.90;;;;;;;20.53;91.06;96527.31;4975284;28;20433;-52
2021/09/26 10:48:56;;;;;;;9.60;8.70;;;;;;;20.64;90.74;96523.44;4975569;28;20421;-56
2021/09/26 10:51:41;;;;;;;11.87;10.73;;;;;;;20.74;90.64;96520.66;4975444;28;20896;-56
2021/09/26 10:54:22;;;;;;;10.50;9.50;;;;;;;20.72;89.91;96525.50;4974968;28;20397;-56
2021/09/26 10:56:49;;;;;;;9.73;8.90;;;;;;;20.65;91.56;96531.19;4975353;28;20437;-52
2021/09/26 10:59:15;;;;;;;10.93;9.80;;;;;;;20.88;89.89;96525.03;4975167;28;20410;-52
2021/09/26 11:01:40;;;;;;;10.20;9.30;;;;;;;20.83;90.02;96527.75;4975306;28;20543;-57
2021/09/26 11:04:13;;;;;;;10.50;9.50;;;;;;;20.97;89.93;96522.50;4973978;28;20645;-57
2021/09/26 11:06:39;;;;;;;9.30;8.50;;;;;;;21.00;88.98;96519.28;4975168;28;20194;-56
2021/09/26 11:09:09;;;;;;;10.00;9.00;;;;;;;21.05;89.11;96514.66;4975213;28;20420;-56
2021/09/26 11:11:37;;;;;;;9.60;8.80;;;;;;;20.97;89.24;96511.81;4975041;28;20178;-52
2021/09/26 11:14:04;;;;;;;9.23;8.43;;;;;;;20.97;89.76;96506.47;4974833;28;20508;-52
2021/09/26 11:16:51;;;;;;;10.03;9.13;;;;;;;21.01;89.73;96491.50;4975021;28;20457;-52
2021/09/26 11:19:19;;;;;;;9.80;9.00;;;;;;;21.22;88.95;96482.88;4975072;28;20433;-56
2021/09/26 11:21:48;;;;;;;10.03;9.13;;;;;;;21.10;88.22;96485.22;4975058;28;20413;-52
2021/09/26 11:24:37;;;;;;;9.73;8.80;;;;;;;20.98;88.26;96484.03;4974603;28;20548;-56
2021/09/26 11:27:30;;;;;;;10.80;9.70;;;;;;;21.12;87.84;96474.22;4975075;28;20459;-56
2021/09/26 11:30:01;;;;;;;9.87;9.00;;;;;;;21.20;87.64;96473.56;4975011;28;20401;-52
2021/09/26 11:32:30;;;;;;;10.40;9.60;;;;;;;21.22;86.98;96461.50;4974724;28;20406;-52